Time;durP1;ratioP1;P1;durP2;ratioP2;P2;SDS_P1;SDS_P2;PMS_P1;PMS_P2;Temp;Humidity;BMP_temperature;BMP_pressure;BME280_temperature;BME280_humidity;BME280_pressure;Samples;Min_cycle;Max_cycle;Signal;HPM_P1;HPM_P2
2023/05/31 00:09:59;;;;;;;;;18.33;18.33;;;;;16.68;60.31;101648.81;4978144;28;45405;-80
2023/05/31 00:12:24;;;;;;;;;21.00;19.67;;;;;16.71;60.33;101661.91;4976875;28;45536;-75
2023/05/31 00:14:49;;;;;;;;;18.67;17.33;;;;;16.56;60.71;101648.22;4960619;28;46642;-76
2023/05/31 00:17:15;;;;;;;;;16.67;16.67;;;;;16.68;60.43;101663.09;4971831;28;45473;-75
2023/05/31 00:19:40;;;;;;;;;13.67;9.67;;;;;16.59;60.70;101658.63;4973238;28;45419;-76
2023/05/31 00:22:05;;;;;;;;;19.00;17.67;;;;;16.62;60.62;101661.03;4964022;28;45290;-75
2023/05/31 00:24:31;;;;;;;;;23.00;20.00;;;;;16.44;60.98;101630.72;4958864;28;47404;-76
2023/05/31 00:26:57;;;;;;;;;23.33;21.00;;;;;16.61;60.68;101653.94;4978805;28;45225;-76
2023/05/31 00:29:22;;;;;;;;;26.33;24.33;;;;;16.61;61.02;101653.94;4962821;28;45376;-76
2023/05/31 00:31:47;;;;;;;;;19.00;18.00;;;;;16.60;60.50;101646.88;4960779;28;45531;-75
2023/05/31 00:34:13;;;;;;;;;21.33;20.33;;;;;16.59;60.54;101647.91;4978489;28;62607;-75
2023/05/31 00:36:38;;;;;;;;;22.67;19.33;;;;;16.66;60.20;101654.34;4960391;28;52914;-76
2023/05/31 00:39:03;;;;;;;;;18.33;16.33;;;;;16.65;59.85;101644.59;4960922;28;45273;-76
2023/05/31 00:41:29;;;;;;;;;23.00;18.33;;;;;16.60;61.06;101662.16;4977518;28;45444;-78
2023/05/31 00:43:55;;;;;;;;;24.67;21.67;;;;;16.43;61.36;101663.94;4961037;28;47297;-74
2023/05/31 00:46:40;;;;;;;;;27.00;22.67;;;;;16.39;61.53;101667.94;4977992;28;45305;-77
2023/05/31 00:49:06;;;;;;;;;22.00;20.33;;;;;16.35;61.83;101655.84;4959774;28;45608;-76
2023/05/31 00:51:33;;;;;;;;;19.67;19.67;;;;;16.37;61.62;101651.97;4978340;28;45365;-77
2023/05/31 00:54:00;;;;;;;;;22.00;18.33;;;;;16.37;61.27;101643.94;4977886;28;45936;-78
2023/05/31 00:56:26;;;;;;;;;21.00;21.00;;;;;16.39;61.57;101647.28;4978779;28;46498;-75
2023/05/31 00:58:52;;;;;;;;;24.33;22.33;;;;;16.40;61.52;101648.97;4960435;28;45337;-77
2023/05/31 01:01:18;;;;;;;;;19.00;17.00;;;;;16.23;61.76;101630.28;4960346;28;45429;-76
2023/05/31 01:03:43;;;;;;;;;18.00;18.00;;;;;16.28;61.93;101641.38;4958600;28;46416;-76
2023/05/31 01:06:10;;;;;;;;;26.67;21.00;;;;;16.16;62.17;101629.22;4961624;28;45413;-76
2023/05/31 01:08:36;;;;;;;;;20.67;19.33;;;;;16.16;61.83;101623.84;4978040;28;45516;-76
2023/05/31 01:11:33;;;;;;;;;27.00;22.67;;;;;16.23;61.81;101639.19;4980999;28;45252;-77
2023/05/31 01:14:32;;;;;;;;;23.33;21.67;;;;;16.08;62.16;101619.31;4978255;28;47067;-75
2023/05/31 01:17:10;;;;;;;;;21.33;17.33;;;;;16.26;61.76;101638.03;4984700;28;45465;-76
2023/05/31 01:19:35;;;;;;;;;20.00;20.00;;;;;16.26;61.93;101636.19;4977119;28;46182;-76
2023/05/31 01:22:28;;;;;;;;;17.00;15.00;;;;;16.29;61.65;101632.31;4980197;28;45500;-76
2023/05/31 01:25:03;;;;;;;;;27.33;19.67;;;;;16.27;61.92;101640.53;4977945;28;46264;-78
2023/05/31 01:27:28;;;;;;;;;21.67;20.67;;;;;15.98;61.64;101575.63;4956147;28;45492;-75
2023/05/31 01:29:55;;;;;;;;;23.33;22.00;;;;;16.31;61.30;101624.97;4979862;28;45513;-75
2023/05/31 01:32:23;;;;;;;;;24.67;21.67;;;;;16.35;60.93;101610.22;4978304;28;45497;-77
2023/05/31 01:34:49;;;;;;;;;22.00;20.33;;;;;16.36;61.29;101625.31;4977657;28;45326;-77
2023/05/31 01:37:15;;;;;;;;;27.33;23.00;;;;;16.24;61.43;101619.41;4959177;28;45420;-76
2023/05/31 01:39:40;;;;;;;;;24.00;22.33;;;;;16.24;61.57;101613.19;4977054;28;45384;-75
2023/05/31 01:42:09;;;;;;;;;22.67;22.67;;;;;16.22;61.39;101612.47;4957897;28;45692;-80
2023/05/31 01:44:35;;;;;;;;;23.00;21.33;;;;;16.13;61.76;101603.56;4940251;28;47688;-77
2023/05/31 01:47:01;;;;;;;;;24.33;20.33;;;;;15.76;62.33;101568.97;4971595;28;45200;-76
2023/05/31 01:49:27;;;;;;;;;20.67;20.00;;;;;15.84;62.79;101600.38;4970101;28;45517;-75
2023/05/31 01:51:52;;;;;;;;;19.67;19.00;;;;;15.86;62.71;101606.41;4980234;28;45168;-74
2023/05/31 01:54:18;;;;;;;;;26.33;23.33;;;;;15.77;63.15;101608.19;4976772;28;46689;-76
2023/05/31 01:56:45;;;;;;;;;23.00;21.67;;;;;15.83;63.07;101612.94;4957150;28;45301;-76
2023/05/31 01:59:12;;;;;;;;;24.67;20.00;;;;;15.75;63.24;101604.81;4963746;28;45613;-77
2023/05/31 02:01:38;;;;;;;;;22.67;22.00;;;;;15.68;63.46;101609.97;4960975;28;45702;-76
2023/05/31 02:04:04;;;;;;;;;25.00;22.67;;;;;15.69;63.61;101617.03;4962156;28;46723;-75
2023/05/31 02:06:30;;;;;;;;;24.67;21.00;;;;;15.66;63.62;101611.13;4957028;28;45370;-77
2023/05/31 02:08:55;;;;;;;;;20.00;17.33;;;;;15.55;64.32;101620.22;4940664;28;45336;-77
2023/05/31 02:11:21;;;;;;;;;27.33;24.33;;;;;15.42;64.41;101623.31;4948986;28;45468;-78
2023/05/31 02:13:47;;;;;;;;;28.00;24.33;;;;;15.08;64.55;101552.69;4962459;28;47045;-76
2023/05/31 02:16:12;;;;;;;;;19.33;19.33;;;;;15.30;64.79;101600.41;4976300;28;45614;-77
2023/05/31 02:18:38;;;;;;;;;25.33;23.00;;;;;15.46;64.13;101605.91;4961578;28;45531;-76
2023/05/31 02:21:05;;;;;;;;;29.00;26.33;;;;;15.46;64.36;101615.81;4966013;28;45406;-75
2023/05/31 02:23:31;;;;;;;;;17.67;15.33;;;;;15.37;64.71;101617.56;4956760;28;48251;-76
2023/05/31 02:25:56;;;;;;;;;27.00;23.67;;;;;15.23;64.92;101588.66;4959146;28;45440;-75
2023/05/31 02:28:22;;;;;;;;;23.33;21.00;;;;;15.32;64.99;101610.97;4977513;28;45306;-78
2023/05/31 02:30:57;;;;;;;;;23.00;21.67;;;;;15.08;65.28;101580.28;4977466;28;45402;-76
2023/05/31 02:33:23;;;;;;;;;25.33;24.33;;;;;14.96;65.03;101548.53;4978447;28;46318;-77
2023/05/31 02:35:50;;;;;;;;;22.00;20.67;;;;;15.25;64.95;101597.38;4980018;28;45338;-76
2023/05/31 02:38:15;;;;;;;;;22.33;19.33;;;;;15.25;65.26;101600.03;4959096;28;45534;-76
2023/05/31 02:40:41;;;;;;;;;22.67;20.67;;;;;15.24;65.27;101606.41;4959324;28;45540;-75
2023/05/31 02:43:06;;;;;;;;;21.67;20.33;;;;;15.19;65.18;101579.22;4960376;28;46463;-77
2023/05/31 02:45:31;;;;;;;;;29.33;25.00;;;;;15.29;65.13;101603.25;4945085;28;46039;-77
2023/05/31 02:47:57;;;;;;;;;19.67;18.67;;;;;15.19;64.82;101576.53;4979929;28;45185;-75
2023/05/31 02:50:22;;;;;;;;;23.00;19.33;;;;;15.33;64.64;101601.94;4980281;28;45608;-77
2023/05/31 02:52:48;;;;;;;;;22.00;20.67;;;;;15.28;64.56;101586.34;4980210;28;46071;-75
2023/05/31 02:55:13;;;;;;;;;23.00;20.33;;;;;15.36;64.54;101594.44;4983903;28;45540;-77
2023/05/31 02:57:38;;;;;;;;;22.00;20.67;;;;;14.90;64.90;101542.78;4964875;28;45611;-76
2023/05/31 03:00:10;;;;;;;;;21.33;19.00;;;;;15.21;65.16;101601.31;4961224;28;45399;-77
2023/05/31 03:02:37;;;;;;;;;24.00;21.33;;;;;14.89;65.23;101573.25;4982672;28;46399;-77
2023/05/31 03:05:03;;;;;;;;;21.00;20.00;;;;;15.07;65.53;101599.19;4977942;28;45327;-78
2023/05/31 03:07:29;;;;;;;;;32.00;22.67;;;;;15.01;66.00;101600.63;4979036;28;45542;-76
2023/05/31 03:09:55;;;;;;;;;24.67;22.00;;;;;15.01;65.71;101589.91;4961099;28;45411;-73
2023/05/31 03:12:21;;;;;;;;;27.67;24.67;;;;;14.60;65.78;101511.03;4964450;28;47161;-73
2023/05/31 03:14:46;;;;;;;;;20.67;20.67;;;;;15.10;65.64;101591.69;4982258;28;45396;-70
2023/05/31 03:17:11;;;;;;;;;25.33;22.67;;;;;14.95;65.61;101571.78;4961070;28;45488;-75
2023/05/31 03:19:37;;;;;;;;;23.00;22.33;;;;;14.55;66.03;101516.00;4979677;28;45700;-75
2023/05/31 03:22:02;;;;;;;;;22.00;19.67;;;;;14.94;66.17;101582.66;4984380;28;45667;-77
2023/05/31 03:24:28;;;;;;;;;23.00;21.00;;;;;14.88;65.95;101563.53;4980592;28;45408;-77
2023/05/31 03:26:54;;;;;;;;;27.33;21.33;;;;;15.09;65.48;101586.50;4958605;28;45558;-76
2023/05/31 03:29:20;;;;;;;;;20.67;20.33;;;;;15.21;64.89;101590.59;4979685;28;45471;-76
2023/05/31 03:31:45;;;;;;;;;21.00;20.00;;;;;15.12;64.98;101586.19;4975118;28;45472;-75
2023/05/31 03:34:11;;;;;;;;;28.33;22.00;;;;;14.94;65.39;101578.13;4981072;28;45317;-77
2023/05/31 03:36:36;;;;;;;;;21.00;20.67;;;;;15.01;65.32;101589.06;4979065;28;45405;-76
2023/05/31 03:39:03;;;;;;;;;19.00;19.00;;;;;15.14;65.31;101592.22;4982538;28;45674;-76
2023/05/31 03:41:28;;;;;;;;;23.67;23.00;;;;;15.15;65.30;101585.88;4978357;28;45686;-75
2023/05/31 03:43:54;;;;;;;;;34.33;27.00;;;;;15.16;64.84;101587.56;4960762;28;45596;-74
2023/05/31 03:46:19;;;;;;;;;30.00;25.33;;;;;14.61;65.48;101518.91;4977750;28;45853;-75
2023/05/31 03:48:44;;;;;;;;;27.67;23.33;;;;;14.89;65.76;101569.72;4978041;28;45522;-74
2023/05/31 03:51:10;;;;;;;;;28.00;26.00;;;;;15.06;65.50;101586.81;4980750;28;45580;-75
2023/05/31 03:53:35;;;;;;;;;25.00;20.67;;;;;14.88;65.36;101560.84;4982627;28;45466;-74
2023/05/31 03:56:01;;;;;;;;;22.33;18.67;;;;;15.03;65.51;101597.81;4960630;28;45547;-75
2023/05/31 03:58:26;;;;;;;;;22.33;19.33;;;;;15.01;65.22;101605.97;4977473;28;45247;-76
2023/05/31 04:00:51;;;;;;;;;25.00;25.00;;;;;14.93;65.75;101599.72;4980248;28;46525;-76
2023/05/31 04:03:17;;;;;;;;;29.00;28.00;;;;;14.93;65.77;101591.69;4977012;28;55871;-75
2023/05/31 04:05:43;;;;;;;;;22.00;22.00;;;;;14.99;65.82;101609.81;4961248;28;45448;-76
2023/05/31 04:08:08;;;;;;;;;34.67;31.67;;;;;14.97;65.55;101611.78;4979981;28;45233;-76
2023/05/31 04:10:34;;;;;;;;;24.33;21.00;;;;;14.89;65.57;101594.66;4981689;28;45489;-75
2023/05/31 04:12:59;;;;;;;;;32.00;25.33;;;;;14.82;65.69;101588.25;4965954;28;45327;-76
2023/05/31 04:15:25;;;;;;;;;23.33;23.33;;;;;14.95;65.50;101600.41;4970365;28;45418;-75
2023/05/31 04:17:51;;;;;;;;;27.67;26.33;;;;;15.02;65.46;101613.06;4978742;28;45234;-76
2023/05/31 04:20:17;;;;;;;;;32.67;28.33;;;;;14.98;65.16;101600.09;4961237;28;47507;-78
2023/05/31 04:22:42;;;;;;;;;26.00;25.00;;;;;14.90;66.00;101612.41;4981721;28;45266;-77
2023/05/31 04:25:12;;;;;;;;;29.33;23.67;;;;;14.88;65.73;101606.38;4957467;28;45246;-76
2023/05/31 04:27:40;;;;;;;;;20.33;18.00;;;;;15.02;65.53;101617.56;4965546;28;45591;-76
2023/05/31 04:30:06;;;;;;;;;21.33;21.33;;;;;14.85;65.21;101593.28;4977600;28;45690;-75
2023/05/31 04:32:34;;;;;;;;;25.00;24.00;;;;;15.07;65.35;101620.63;4976542;28;46116;-77
2023/05/31 04:35:03;;;;;;;;;25.00;23.67;;;;;14.98;65.55;101608.97;4977756;28;45319;-75
2023/05/31 04:37:29;;;;;;;;;27.00;26.67;;;;;15.10;65.36;101618.47;4977906;28;45484;-77
2023/05/31 04:39:58;;;;;;;;;26.67;25.67;;;;;15.10;65.23;101623.00;4960334;28;46548;-77
2023/05/31 04:42:24;;;;;;;;;26.00;23.00;;;;;15.02;65.12;101601.50;4977138;28;45489;-74
2023/05/31 04:44:57;;;;;;;;;28.33;28.00;;;;;15.12;64.98;101618.31;4977552;28;45441;-76
2023/05/31 04:47:29;;;;;;;;;27.33;25.33;;;;;15.11;64.72;101614.81;4960958;28;45836;-75
2023/05/31 04:49:56;;;;;;;;;36.67;29.33;;;;;15.20;64.72;101627.25;4975597;28;46064;-75
2023/05/31 04:52:24;;;;;;;;;29.67;25.67;;;;;15.14;64.68;101617.16;4976442;28;45516;-76
2023/05/31 04:54:49;;;;;;;;;25.67;23.67;;;;;15.01;65.16;101605.13;4968184;28;45384;-76
2023/05/31 04:57:14;;;;;;;;;30.00;25.67;;;;;15.11;65.14;101622.00;4977028;28;45503;-76
2023/05/31 04:59:40;;;;;;;;;28.67;26.00;;;;;15.03;64.78;101597.81;4959469;28;47309;-76
2023/05/31 05:02:05;;;;;;;;;22.67;20.33;;;;;15.10;65.20;101614.97;4958741;28;45535;-76
2023/05/31 05:04:31;;;;;;;;;24.00;20.67;;;;;15.12;64.79;101605.78;4977178;28;45456;-77
2023/05/31 05:06:56;;;;;;;;;30.33;25.33;;;;;15.06;65.16;101617.09;4976938;28;45555;-75
2023/05/31 05:09:22;;;;;;;;;28.00;26.00;;;;;14.90;65.26;101587.47;4979362;28;45471;-75
2023/05/31 05:11:47;;;;;;;;;28.67;24.33;;;;;14.78;65.36;101573.44;4976966;28;45292;-77
2023/05/31 05:14:12;;;;;;;;;24.33;21.67;;;;;15.07;65.31;101617.94;4959809;28;45563;-77
2023/05/31 05:16:37;;;;;;;;;24.33;22.67;;;;;15.01;65.17;101611.34;4976870;28;49638;-77
2023/05/31 05:19:03;;;;;;;;;24.33;21.33;;;;;14.94;65.53;101604.91;4944104;28;47873;-77
2023/05/31 05:21:29;;;;;;;;;22.00;19.33;;;;;14.90;65.47;101593.66;4956161;28;45452;-77
2023/05/31 05:23:54;;;;;;;;;21.67;19.67;;;;;15.00;65.48;101617.69;4958783;28;45456;-77
2023/05/31 05:26:20;;;;;;;;;20.00;16.00;;;;;14.25;65.60;101493.91;4956068;28;45598;-75
2023/05/31 05:28:45;;;;;;;;;28.00;23.33;;;;;15.07;65.33;101615.25;4956913;28;45630;-77
2023/05/31 05:31:10;;;;;;;;;23.00;21.33;;;;;15.06;65.23;101600.19;4957213;28;45254;-78
2023/05/31 05:33:36;;;;;;;;;25.67;23.67;;;;;14.79;64.86;101556.38;4960214;28;45541;-75
2023/05/31 05:36:02;;;;;;;;;27.00;22.33;;;;;15.17;64.85;101619.53;4971549;28;45394;-77
2023/05/31 05:38:27;;;;;;;;;24.67;23.33;;;;;15.26;64.70;101615.13;4956582;28;45419;-77
2023/05/31 05:40:53;;;;;;;;;20.00;17.00;;;;;15.13;64.70;101601.25;4959772;28;45603;-80
2023/05/31 05:43:18;;;;;;;;;27.00;25.67;;;;;15.28;64.58;101623.00;4957026;28;45526;-78
2023/05/31 05:45:43;;;;;;;;;20.67;20.33;;;;;15.10;64.20;101575.63;4958035;28;45284;-76
2023/05/31 05:48:09;;;;;;;;;20.67;18.33;;;;;15.58;63.40;101635.97;4971980;28;48642;-76
2023/05/31 05:50:34;;;;;;;;;20.00;18.67;;;;;15.70;63.27;101617.88;4956778;28;45512;-76
2023/05/31 05:52:59;;;;;;;;;24.67;18.67;;;;;15.85;62.96;101621.66;4955214;28;46362;-77
2023/05/31 05:55:25;;;;;;;;;28.50;21.50;;;;;16.02;62.44;101623.47;4947995;28;45598;-75
2023/05/31 05:57:51;;;;;;;;;22.33;20.00;;;;;16.54;61.22;101615.34;4964485;28;48067;-80
2023/05/31 06:00:17;;;;;;;;;24.67;23.67;;;;;17.31;58.25;101616.91;4955660;28;46043;-81
2023/05/31 06:02:43;;;;;;;;;28.00;22.00;;;;;18.12;56.47;101609.81;4955910;28;47009;-74
2023/05/31 06:05:08;;;;;;;;;22.00;19.33;;;;;18.75;54.49;101595.44;4956253;28;45944;-77
2023/05/31 06:07:34;;;;;;;;;22.00;19.67;;;;;19.45;52.36;101598.84;4954763;28;47232;-77
2023/05/31 06:10:00;;;;;;;;;25.00;25.00;;;;;20.18;49.68;101594.59;4960312;28;45358;-75
2023/05/31 06:12:25;;;;;;;;;23.00;23.00;;;;;20.70;48.36;101598.22;4965587;28;45600;-79
2023/05/31 06:14:51;;;;;;;;;22.67;21.67;;;;;21.17;47.09;101608.50;4965115;28;45275;-78
2023/05/31 06:17:16;;;;;;;;;19.00;16.00;;;;;21.74;46.11;101594.91;4954165;28;48898;-74
2023/05/31 06:19:42;;;;;;;;;21.67;19.00;;;;;22.26;44.29;101593.63;4979721;28;45246;-76
2023/05/31 06:22:07;;;;;;;;;20.33;17.33;;;;;22.72;43.49;101601.97;4979922;28;45368;-77
2023/05/31 06:24:32;;;;;;;;;19.67;16.67;;;;;23.20;42.50;101598.34;4980223;28;45396;-76
2023/05/31 06:26:58;;;;;;;;;23.67;18.67;;;;;23.62;41.40;101614.25;4977693;28;46480;-77
2023/05/31 06:29:23;;;;;;;;;17.00;16.00;;;;;23.94;40.46;101590.84;4979723;28;45918;-79
2023/05/31 06:31:49;;;;;;;;;22.00;19.00;;;;;24.43;39.58;101610.44;4962373;28;45443;-79
2023/05/31 06:34:14;;;;;;;;;17.00;16.33;;;;;24.71;38.91;101597.34;4950943;28;45534;-77
2023/05/31 06:36:42;;;;;;;;;16.00;15.00;;;;;25.20;38.41;101603.97;4949586;28;47305;-78
2023/05/31 06:39:07;;;;;;;;;14.67;12.33;;;;;25.13;36.78;101595.88;4978884;28;45347;-78
2023/05/31 06:41:34;;;;;;;;;16.00;13.00;;;;;25.28;36.97;101606.44;4978711;28;45582;-79
2023/05/31 06:44:01;;;;;;;;;15.67;13.67;;;;;25.29;36.10;101597.22;4982198;28;45385;-80
2023/05/31 06:46:26;;;;;;;;;22.33;18.00;;;;;25.00;36.61;101601.38;4977302;28;47340;-76
2023/05/31 06:48:51;;;;;;;;;19.67;17.33;;;;;24.95;36.88;101549.50;4961434;28;45418;-76
2023/05/31 06:51:19;;;;;;;;;18.67;18.67;;;;;25.49;36.44;101586.19;4979912;28;45750;-77
2023/05/31 06:53:44;;;;;;;;;17.67;17.00;;;;;25.80;35.72;101589.91;4961639;28;45208;-78
2023/05/31 06:56:10;;;;;;;;;16.67;15.33;;;;;26.28;35.56;101590.88;4976266;28;47836;-75
2023/05/31 06:58:35;;;;;;;;;18.00;17.33;;;;;26.31;34.33;101579.53;4980685;28;45345;-78
2023/05/31 07:01:01;;;;;;;;;18.33;17.67;;;;;26.36;34.19;101595.22;4977061;28;45335;-78
2023/05/31 07:03:26;;;;;;;;;14.33;14.33;;;;;26.53;34.44;101579.06;4960401;28;45564;-77
2023/05/31 07:05:52;;;;;;;;;19.00;18.00;;;;;26.81;33.51;101592.94;4978143;28;45462;-76
2023/05/31 07:08:17;;;;;;;;;17.00;14.00;;;;;27.00;33.39;101546.53;4979555;28;45483;-78
2023/05/31 07:10:45;;;;;;;;;18.00;18.00;;;;;27.43;32.29;101582.63;4983453;28;45476;-78
2023/05/31 07:13:10;;;;;;;;;16.67;15.67;;;;;27.86;32.28;101581.47;4962170;28;45491;-77
2023/05/31 07:15:36;;;;;;;;;18.67;18.33;;;;;27.99;31.58;101532.00;4979227;28;45692;-77
2023/05/31 07:18:01;;;;;;;;;11.33;10.67;;;;;28.10;30.79;101522.97;4976407;28;45316;-77
2023/05/31 07:20:27;;;;;;;;;20.33;17.00;;;;;28.71;30.62;101570.72;4950007;28;45553;-75
2023/05/31 07:22:52;;;;;;;;;18.33;18.33;;;;;28.90;29.94;101554.13;4975282;28;45251;-76
2023/05/31 07:25:17;;;;;;;;;18.67;14.00;;;;;28.98;30.00;101561.94;4978837;28;45525;-78
2023/05/31 07:27:43;;;;;;;;;19.00;16.67;;;;;29.24;29.91;101565.97;4977023;28;45509;-77
2023/05/31 07:30:08;;;;;;;;;17.67;15.67;;;;;29.64;29.83;101579.53;4976131;28;45433;-78
2023/05/31 07:32:34;;;;;;;;;16.00;16.00;;;;;29.80;28.59;101570.44;4961352;28;45247;-78
2023/05/31 07:35:00;;;;;;;;;17.00;15.67;;;;;29.84;28.61;101568.03;4961364;28;47751;-77
2023/05/31 07:37:25;;;;;;;;;13.00;11.00;;;;;30.05;28.48;101570.00;4964812;28;45705;-79
2023/05/31 07:39:50;;;;;;;;;16.67;14.33;;;;;30.38;28.32;101552.56;4965700;28;45512;-77
2023/05/31 07:42:16;;;;;;;;;14.67;14.33;;;;;30.84;27.65;101544.91;4964341;28;45537;-77
2023/05/31 07:44:42;;;;;;;;;16.67;15.67;;;;;31.21;26.94;101561.44;4978069;28;47735;-77
2023/05/31 07:47:08;;;;;;;;;20.00;17.67;;;;;31.38;26.68;101558.56;4976859;28;45549;-77
2023/05/31 07:49:33;;;;;;;;;18.67;17.33;;;;;31.57;26.77;101553.47;4976971;28;45489;-73
2023/05/31 07:51:59;;;;;;;;;19.00;17.33;;;;;31.72;25.60;101548.13;4974675;28;45423;-80
2023/05/31 07:54:24;;;;;;;;;16.33;14.67;;;;;31.77;26.96;101562.72;4972965;28;48813;-74
2023/05/31 07:56:49;;;;;;;;;13.33;11.00;;;;;31.54;25.58;101545.78;4957693;28;45418;-72
2023/05/31 07:59:16;;;;;;;;;9.33;9.33;;;;;31.51;26.57;101555.38;4967367;28;45538;-74
2023/05/31 08:01:42;;;;;;;;;11.00;10.00;;;;;31.24;25.77;101532.66;4970777;28;45673;-74
2023/05/31 08:04:08;;;;;;;;;12.33;12.33;;;;;31.26;25.71;101546.94;4965145;28;45482;-75
2023/05/31 08:06:34;;;;;;;;;10.67;10.67;;;;;30.92;26.25;101540.84;4975696;28;45526;-74
2023/05/31 08:09:00;;;;;;;;;10.33;9.33;;;;;30.57;26.23;101548.41;4969439;28;45970;-74
2023/05/31 08:11:26;;;;;;;;;12.00;11.00;;;;;30.63;26.46;101537.50;4976068;28;45402;-75
2023/05/31 08:13:52;;;;;;;;;8.00;8.00;;;;;30.21;26.40;101510.66;4977349;28;45748;-77
2023/05/31 08:16:17;;;;;;;;;11.33;9.33;;;;;30.09;26.91;101554.69;4965004;28;45472;-77
2023/05/31 08:18:43;;;;;;;;;9.67;6.67;;;;;29.91;27.76;101514.66;4977716;28;45935;-76
2023/05/31 08:21:09;;;;;;;;;9.67;9.67;;;;;30.35;26.44;101547.59;4979451;28;45540;-77
2023/05/31 08:23:34;;;;;;;;;10.67;10.67;;;;;30.32;26.85;101490.50;4975562;28;45442;-72
2023/05/31 08:26:00;;;;;;;;;13.33;10.33;;;;;30.92;26.19;101544.41;4976856;28;45405;-73
2023/05/31 08:28:26;;;;;;;;;10.00;10.00;;;;;30.84;25.65;101534.75;4975757;28;45643;-73
2023/05/31 08:30:52;;;;;;;;;11.33;11.33;;;;;30.67;25.95;101527.69;4958911;28;45327;-73
2023/05/31 08:33:17;;;;;;;;;10.33;9.00;;;;;30.42;26.63;101523.53;4975928;28;45727;-72
2023/05/31 08:35:42;;;;;;;;;12.00;12.00;;;;;30.47;26.57;101507.16;4954770;28;46237;-72
2023/05/31 08:38:08;;;;;;;;;10.00;9.67;;;;;30.42;25.96;101526.28;4969374;28;45504;-72
2023/05/31 08:40:33;;;;;;;;;10.00;8.33;;;;;30.20;27.29;101528.22;4979095;28;45657;-72
2023/05/31 08:43:15;;;;;;;;;10.33;9.00;;;;;29.85;27.46;101521.19;4958520;28;48736;-72
2023/05/31 08:45:42;;;;;;;;;9.33;9.00;;;;;30.15;27.06;101511.69;4948561;28;45837;-72
2023/05/31 08:48:21;;;;;;;;;11.33;11.33;;;;;30.24;26.87;101523.91;4956262;28;45432;-72
2023/05/31 08:50:46;;;;;;;;;9.67;9.33;;;;;30.29;26.62;101515.72;4959845;28;45527;-72
2023/05/31 08:53:15;;;;;;;;;11.33;11.33;;;;;30.58;26.78;101519.88;4974285;28;46878;-74
2023/05/31 08:55:42;;;;;;;;;9.33;9.33;;;;;31.21;26.17;101516.66;4980160;28;45413;-75
2023/05/31 08:58:10;;;;;;;;;12.33;12.33;;;;;31.68;25.65;101494.75;4977155;28;45365;-72
2023/05/31 09:00:36;;;;;;;;;6.33;5.00;;;;;31.75;24.96;101490.66;4975985;28;45566;-73
2023/05/31 09:03:06;;;;;;;;;10.67;9.00;;;;;31.57;25.56;101469.09;4974847;28;45826;-72
2023/05/31 09:05:31;;;;;;;;;11.00;11.00;;;;;31.77;25.10;101490.41;4968567;28;45758;-72
2023/05/31 09:07:58;;;;;;;;;11.00;10.00;;;;;31.89;24.33;101462.69;4966713;28;45480;-72
2023/05/31 09:10:24;;;;;;;;;10.67;10.67;;;;;32.33;24.54;101501.66;4971689;28;45661;-73
2023/05/31 09:12:49;;;;;;;;;13.67;13.33;;;;;32.97;23.87;101502.06;4974365;28;46439;-75
2023/05/31 09:15:15;;;;;;;;;13.67;12.33;;;;;32.85;24.04;101512.53;4976238;28;45484;-79
2023/05/31 09:17:45;;;;;;;;;13.67;12.67;;;;;33.60;23.44;101503.66;4972763;28;45429;-80
2023/05/31 09:20:11;;;;;;;;;10.00;9.00;;;;;34.20;22.85;101496.28;4962966;28;45713;-79
2023/05/31 09:22:37;;;;;;;;;10.33;10.00;;;;;34.30;21.73;101418.97;4975107;28;46077;-81
2023/05/31 09:25:03;;;;;;;;;8.67;7.00;;;;;34.83;21.72;101485.41;4974990;28;45516;-77
2023/05/31 09:27:38;;;;;;;;;8.33;8.33;;;;;34.27;22.12;101430.56;4976346;28;45526;-77
2023/05/31 09:30:14;;;;;;;;;9.50;9.50;;;;;35.15;21.03;101485.72;4968531;28;45445;-77
2023/05/31 09:32:40;;;;;;;;;4.00;4.00;;;;;35.76;20.18;101476.78;4967648;28;46602;-79
2023/05/31 09:35:23;;;;;;;;;9.33;9.33;;;;;35.81;20.29;101437.97;4957943;28;45199;-78
2023/05/31 09:37:49;;;;;;;;;9.00;8.33;;;;;36.47;19.75;101464.00;4958311;28;45481;-82
2023/05/31 09:40:22;;;;;;;;;8.00;7.33;;;;;36.13;19.57;101417.94;4959900;28;45429;-79
2023/05/31 09:42:54;;;;;;;;;7.67;7.67;;;;;36.78;19.82;101456.00;4972515;28;47018;-81
2023/05/31 09:45:21;;;;;;;;;8.33;7.67;;;;;37.42;19.42;101482.06;4976925;28;45598;-77
2023/05/31 09:48:01;;;;;;;;;7.67;7.67;;;;;36.54;19.52;101472.72;4971986;28;45413;-77
2023/05/31 09:50:26;;;;;;;;;9.67;8.33;;;;;35.28;20.80;101451.06;4966100;28;45610;-80
2023/05/31 09:52:59;;;;;;;;;10.00;8.33;;;;;34.74;21.42;101468.63;4977794;28;47832;-80
2023/05/31 09:55:39;;;;;;;;;8.00;8.00;;;;;34.29;21.97;101467.00;4980438;28;45355;-78
2023/05/31 09:58:04;;;;;;;;;9.00;9.00;;;;;33.83;22.05;101409.25;4978618;28;45727;-78
2023/05/31 10:00:30;;;;;;;;;6.67;6.00;;;;;33.75;22.17;101435.50;4979775;28;45593;-80
2023/05/31 10:02:55;;;;;;;;;9.00;7.33;;;;;33.58;22.12;101463.41;4961331;28;47376;-82
2023/05/31 10:05:21;;;;;;;;;13.33;10.00;;;;;32.10;23.28;101425.91;4961042;28;46184;-78
2023/05/31 10:07:48;;;;;;;;;8.33;8.33;;;;;31.37;24.47;101460.72;4981844;28;45384;-75
2023/05/31 10:10:14;;;;;;;;;10.00;8.33;;;;;30.59;25.42;101460.31;4981942;28;45370;-77
2023/05/31 10:12:48;;;;;;;;;7.67;6.00;;;;;30.26;26.09;101443.00;4980803;28;45639;-80
2023/05/31 10:15:18;;;;;;;;;9.33;8.00;;;;;29.78;26.87;101454.72;4980513;28;45211;-77
2023/05/31 10:18:01;;;;;;;;;8.00;8.00;;;;;29.12;27.83;101461.97;4980526;28;45550;-78
2023/05/31 10:20:39;;;;;;;;;8.00;8.00;;;;;28.57;28.86;101435.28;4963552;28;45623;-78
2023/05/31 10:23:16;;;;;;;;;8.67;8.67;;;;;28.33;29.60;101437.31;4978361;28;47707;-81
2023/05/31 10:25:56;;;;;;;;;9.67;9.67;;;;;28.04;29.39;101449.31;4977943;28;45504;-79
2023/05/31 10:28:28;;;;;;;;;8.00;7.00;;;;;26.91;29.83;101366.75;4969649;28;45513;-80
2023/05/31 10:30:55;;;;;;;;;7.00;6.00;;;;;26.83;30.45;101440.78;4979261;28;45711;-77
2023/05/31 10:33:22;;;;;;;;;6.67;6.67;;;;;26.52;30.87;101438.34;4964508;28;47014;-78
2023/05/31 10:35:50;;;;;;;;;8.67;6.00;;;;;26.34;31.80;101433.72;4980184;28;45382;-78
2023/05/31 10:38:20;;;;;;;;;8.00;8.00;;;;;26.28;32.18;101424.59;4979970;28;45268;-78
2023/05/31 10:40:53;;;;;;;;;7.67;7.67;;;;;26.16;32.24;101442.78;4978476;28;45446;-77
2023/05/31 10:43:26;;;;;;;;;10.00;10.00;;;;;25.72;32.36;101428.47;4961726;28;48850;-78
2023/05/31 10:45:56;;;;;;;;;6.33;6.33;;;;;25.39;32.96;101426.06;4979965;28;45472;-77
2023/05/31 10:48:52;;;;;;;;;6.33;6.33;;;;;25.45;32.80;101441.50;4979513;28;45272;-77
2023/05/31 10:51:17;;;;;;;;;11.00;9.67;;;;;25.22;33.72;101413.25;4980447;28;45231;-78
2023/05/31 10:53:47;;;;;;;;;6.33;6.00;;;;;24.82;33.81;101381.78;4977968;28;46471;-78
2023/05/31 10:56:14;;;;;;;;;9.67;7.67;;;;;25.01;33.65;101403.63;4980761;28;45284;-77
2023/05/31 10:58:41;;;;;;;;;14.67;13.33;;;;;25.03;34.42;101425.97;4980493;28;45427;-79
2023/05/31 11:01:11;;;;;;;;;9.67;8.00;;;;;24.45;34.93;101355.53;4980225;28;45278;-77
2023/05/31 11:03:48;;;;;;;;;9.33;9.33;;;;;24.78;34.98;101425.97;4979372;28;46559;-77
2023/05/31 11:06:22;;;;;;;;;11.67;8.00;;;;;24.81;35.30;101422.78;4984215;28;45235;-76
2023/05/31 11:08:58;;;;;;;;;10.33;9.67;;;;;24.87;35.38;101427.38;4982790;28;45294;-79
2023/05/31 11:11:32;;;;;;;;;4.67;4.67;;;;;24.83;34.78;101420.72;4962426;28;45317;-78
2023/05/31 11:14:03;;;;;;;;;6.00;6.00;;;;;24.81;34.69;101411.91;4962157;28;48313;-78
2023/05/31 11:16:33;;;;;;;;;6.67;5.67;;;;;24.73;35.27;101420.34;4980275;28;45377;-78
2023/05/31 11:19:13;;;;;;;;;8.00;8.00;;;;;24.73;36.12;101409.47;4980224;28;45472;-78
2023/05/31 11:21:55;;;;;;;;;9.67;8.67;;;;;24.65;35.71;101415.19;4977895;28;45417;-79